Time;durP1;ratioP1;P1;durP2;ratioP2;P2;SDS_P1;SDS_P2;PMS_P1;PMS_P2;Temp;Humidity;BMP_temperature;BMP_pressure;BME280_temperature;BME280_humidity;BME280_pressure;Samples;Min_cycle;Max_cycle;Signal;HPM_P1;HPM_P2
2022/10/26 00:00:26;;;;;;;1.48;0.80;;;;;;;19.58;60.61;100975.59;5044151;28;20159;-42
2022/10/26 00:02:53;;;;;;;1.60;0.95;;;;;;;19.57;60.68;100976.50;5046553;28;20540;-42
2022/10/26 00:05:19;;;;;;;2.50;1.23;;;;;;;19.56;60.66;100973.03;5054469;28;20138;-42
2022/10/26 00:07:44;;;;;;;1.98;1.00;;;;;;;19.56;60.54;100967.75;5054644;28;20909;-42
2022/10/26 00:10:10;;;;;;;1.42;0.80;;;;;;;19.55;60.64;100958.13;5043603;28;20515;-42
2022/10/26 00:12:35;;;;;;;2.13;1.02;;;;;;;19.55;60.64;100959.94;5046576;28;20104;-42
2022/10/26 00:15:00;;;;;;;2.17;0.90;;;;;;;19.56;60.73;100959.00;5045001;28;20083;-42
2022/10/26 00:17:26;;;;;;;2.15;1.30;;;;;;;19.55;60.56;100954.69;5050753;28;20143;-44
2022/10/26 00:19:51;;;;;;;2.40;0.90;;;;;;;19.54;60.57;100953.81;5042981;28;20037;-42
2022/10/26 00:22:16;;;;;;;2.15;1.13;;;;;;;19.54;60.71;100955.59;5044453;28;20045;-43
2022/10/26 00:24:42;;;;;;;2.33;0.80;;;;;;;19.53;60.75;100960.00;5047525;28;20171;-42
2022/10/26 00:27:07;;;;;;;1.52;0.95;;;;;;;19.54;60.67;100960.88;5046683;28;20120;-42
2022/10/26 00:29:33;;;;;;;1.95;0.90;;;;;;;19.55;60.59;100963.41;5043522;28;20163;-44
2022/10/26 00:31:58;;;;;;;1.67;0.90;;;;;;;19.54;60.54;100967.00;5047182;28;20115;-43
2022/10/26 00:34:23;;;;;;;1.67;0.90;;;;;;;19.53;60.61;100957.38;5050094;28;20075;-44
2022/10/26 00:36:49;;;;;;;1.48;0.88;;;;;;;19.54;60.76;100969.63;5046668;28;20043;-44
2022/10/26 00:39:14;;;;;;;1.90;0.80;;;;;;;19.53;60.57;100974.97;5044332;28;20159;-43
2022/10/26 00:41:39;;;;;;;2.72;0.80;;;;;;;19.52;60.62;100968.84;5043359;28;20152;-44
2022/10/26 00:44:54;;;;;;;1.95;0.88;;;;;;;19.53;60.57;100970.56;5048112;28;20029;-43
2022/10/26 00:47:28;;;;;;;2.30;1.00;;;;;;;19.52;60.66;100965.38;5040593;28;20041;-44
2022/10/26 00:49:57;;;;;;;1.70;1.10;;;;;;;19.52;60.55;100968.84;5042498;28;20052;-44
2022/10/26 00:52:24;;;;;;;1.58;0.80;;;;;;;19.52;60.62;100960.94;5048002;28;20359;-43
2022/10/26 00:54:51;;;;;;;2.15;1.15;;;;;;;19.53;60.60;100969.69;5044249;28;20039;-44
2022/10/26 00:57:17;;;;;;;1.67;1.15;;;;;;;19.50;60.56;100957.56;5042680;28;20037;-44
2022/10/26 00:59:45;;;;;;;1.83;0.85;;;;;;;19.53;60.56;100964.44;5044396;28;20463;-44
2022/10/26 01:02:11;;;;;;;1.48;0.82;;;;;;;19.51;60.45;100964.53;5047518;28;20032;-44
2022/10/26 01:04:37;;;;;;;1.08;0.73;;;;;;;19.52;60.72;100970.66;5051706;28;20040;-44
2022/10/26 01:07:04;;;;;;;1.58;1.00;;;;;;;19.52;60.56;100965.38;5049693;28;20055;-44
2022/10/26 01:09:30;;;;;;;2.22;1.00;;;;;;;19.51;60.50;100958.41;5049085;28;20514;-44
2022/10/26 01:11:56;;;;;;;1.85;0.77;;;;;;;19.50;60.52;100952.28;5045595;28;20513;-44
2022/10/26 01:14:22;;;;;;;2.17;0.90;;;;;;;19.51;60.46;100947.88;5045002;28;20037;-44
2022/10/26 01:17:05;;;;;;;1.17;0.90;;;;;;;19.51;60.56;100945.22;5047110;28;20786;-44
2022/10/26 01:20:05;;;;;;;0.85;0.70;;;;;;;19.51;60.50;100937.31;5048383;28;20036;-45
2022/10/26 01:22:40;;;;;;;1.73;0.98;;;;;;;19.50;60.58;100938.25;5035391;28;20409;-44
2022/10/26 01:25:50;;;;;;;1.25;0.90;;;;;;;19.51;60.49;100937.31;5041711;28;20029;-44
2022/10/26 01:28:40;;;;;;;1.42;0.90;;;;;;;19.51;60.39;100934.69;5026518;28;20044;-43
2022/10/26 01:31:10;;;;;;;2.05;0.90;;;;;;;19.49;60.57;100929.50;5048616;28;20805;-43
2022/10/26 01:33:48;;;;;;;1.58;0.90;;;;;;;19.50;60.43;100930.34;5050012;28;20045;-43
2022/10/26 01:36:25;;;;;;;1.73;0.95;;;;;;;19.50;60.57;100931.19;5053242;28;20141;-44
2022/10/26 01:39:01;;;;;;;1.80;0.90;;;;;;;19.49;60.47;100926.84;5053470;28;20098;-44
2022/10/26 01:41:35;;;;;;;1.58;0.80;;;;;;;19.49;60.38;100915.50;5045459;28;20099;-43
2022/10/26 01:44:05;;;;;;;2.10;1.10;;;;;;;19.49;60.45;100916.31;5052109;28;20510;-45
2022/10/26 01:46:36;;;;;;;1.30;0.82;;;;;;;19.49;60.55;100910.22;5049593;28;20038;-44
2022/10/26 01:49:08;;;;;;;1.33;0.80;;;;;;;19.47;60.38;100905.03;5051757;28;20032;-45
2022/10/26 01:51:35;;;;;;;1.35;0.90;;;;;;;19.50;60.44;100896.09;5046809;28;20037;-46
2022/10/26 01:54:00;;;;;;;1.85;0.98;;;;;;;19.49;60.43;100902.31;5052881;28;20040;-44
2022/10/26 01:56:29;;;;;;;2.53;0.90;;;;;;;19.47;60.42;100904.16;5051613;28;20118;-43
2022/10/26 01:59:06;;;;;;;2.08;0.90;;;;;;;19.48;60.40;100906.72;5047401;28;20036;-44
2022/10/26 02:01:43;;;;;;;1.75;0.82;;;;;;;19.48;60.45;100906.72;5048609;28;20036;-44
2022/10/26 02:04:27;;;;;;;1.48;0.75;;;;;;;19.48;60.50;100901.47;5049887;28;20064;-44
2022/10/26 02:07:15;;;;;;;1.42;1.00;;;;;;;19.46;60.48;100903.31;5056636;28;20144;-44
2022/10/26 02:10:17;;;;;;;1.80;1.00;;;;;;;19.46;60.52;100892.78;5046335;28;20502;-43
2022/10/26 02:13:00;;;;;;;1.73;0.93;;;;;;;19.46;60.28;100895.41;5050017;28;20041;-44
2022/10/26 02:15:39;;;;;;;1.10;0.70;;;;;;;19.48;60.44;100900.59;5048819;28;20106;-44
2022/10/26 02:18:42;;;;;;;1.67;0.90;;;;;;;19.46;60.43;100892.78;5056047;28;20040;-44
2022/10/26 02:21:17;;;;;;;0.93;0.70;;;;;;;19.46;60.57;100892.78;5049595;28;20099;-43
2022/10/26 02:23:46;;;;;;;1.60;0.77;;;;;;;19.45;60.09;100888.47;5044129;28;20041;-44
2022/10/26 02:26:18;;;;;;;1.45;0.70;;;;;;;19.46;60.36;100890.13;5059908;28;20084;-39
2022/10/26 02:28:49;;;;;;;0.77;0.50;;;;;;;19.46;60.56;100882.22;5053897;28;20063;-39
2022/10/26 02:31:16;;;;;;;2.25;1.00;;;;;;;19.46;60.43;100876.97;5051643;28;20678;-39
2022/10/26 02:33:47;;;;;;;1.33;0.75;;;;;;;19.46;60.34;100884.03;5054475;28;20045;-40
2022/10/26 02:36:19;;;;;;;1.30;0.77;;;;;;;19.45;60.01;100888.47;5048655;28;20035;-39
2022/10/26 02:38:47;;;;;;;1.13;0.73;;;;;;;19.46;60.46;100886.69;5048931;28;20144;-39
2022/10/26 02:41:13;;;;;;;1.55;1.08;;;;;;;19.45;60.30;100882.34;5048636;28;20032;-40
2022/10/26 02:43:47;;;;;;;0.88;0.65;;;;;;;19.44;60.29;100875.34;5054639;28;20493;-39
2022/10/26 02:46:16;;;;;;;1.17;0.60;;;;;;;19.45;60.40;100877.06;5048313;28;20654;-39
2022/10/26 02:48:42;;;;;;;2.30;0.80;;;;;;;19.45;60.48;100877.06;5052761;28;20112;-39
2022/10/26 02:51:17;;;;;;;0.70;0.50;;;;;;;19.45;60.38;100871.78;5052694;28;20727;-39
2022/10/26 02:53:52;;;;;;;1.45;0.77;;;;;;;19.45;60.35;100874.44;5045349;28;20537;-39
2022/10/26 02:56:27;;;;;;;1.90;0.90;;;;;;;19.44;60.35;100867.44;5053907;28;20390;-39
2022/10/26 02:59:01;;;;;;;1.83;0.80;;;;;;;19.44;60.14;100862.19;5049203;28;20562;-40
2022/10/26 03:01:28;;;;;;;0.80;0.50;;;;;;;19.44;60.20;100862.19;5051184;28;20052;-39
2022/10/26 03:03:56;;;;;;;1.45;0.70;;;;;;;19.44;60.30;100860.41;5046250;28;20037;-39
2022/10/26 03:06:22;;;;;;;0.98;0.63;;;;;;;19.44;60.29;100857.78;5048074;28;20036;-39
2022/10/26 03:08:48;;;;;;;1.02;0.60;;;;;;;19.44;60.37;100859.53;5050423;28;20378;-39
2022/10/26 03:11:13;;;;;;;1.25;0.88;;;;;;;19.44;60.28;100862.19;5047680;28;20055;-40
2022/10/26 03:13:38;;;;;;;1.63;0.80;;;;;;;19.44;60.33;100860.41;5047781;28;20179;-39
2022/10/26 03:16:04;;;;;;;1.40;0.75;;;;;;;19.44;60.30;100867.44;5066889;28;20036;-39
2022/10/26 03:18:29;;;;;;;1.20;0.70;;;;;;;19.43;60.41;100857.88;5046770;28;20036;-40
2022/10/26 03:20:55;;;;;;;1.55;0.70;;;;;;;19.43;60.08;100860.50;5049358;28;20076;-39
2022/10/26 03:23:20;;;;;;;0.88;0.60;;;;;;;19.42;60.32;100862.28;5041359;28;20695;-39
2022/10/26 03:25:45;;;;;;;1.20;0.75;;;;;;;19.43;60.35;100869.22;5053666;28;21424;-39
2022/10/26 03:28:11;;;;;;;1.33;0.68;;;;;;;19.42;60.23;100867.56;5051004;28;20029;-39
2022/10/26 03:30:36;;;;;;;1.77;0.70;;;;;;;19.43;60.43;100866.59;5053871;28;20063;-39
2022/10/26 03:33:02;;;;;;;1.13;0.88;;;;;;;19.42;60.19;100861.44;5052177;28;20040;-39
2022/10/26 03:35:27;;;;;;;1.50;0.75;;;;;;;19.42;60.22;100862.28;5051000;28;20449;-39
2022/10/26 03:37:53;;;;;;;1.08;0.63;;;;;;;19.42;60.28;100864.06;5052664;28;20044;-39
2022/10/26 03:40:19;;;;;;;2.15;0.75;;;;;;;19.41;60.10;100868.47;5044851;28;20091;-40
2022/10/26 03:42:44;;;;;;;1.42;0.85;;;;;;;19.43;60.31;100865.78;5042275;28;20741;-40
2022/10/26 03:45:10;;;;;;;1.63;0.70;;;;;;;19.43;60.64;100873.69;5050710;28;20064;-39
2022/10/26 03:47:46;;;;;;;1.17;0.68;;;;;;;19.40;60.32;100866.78;5043785;28;20045;-39
2022/10/26 03:50:13;;;;;;;1.23;0.60;;;;;;;19.42;60.30;100874.59;5043439;28;20437;-39
2022/10/26 03:52:39;;;;;;;1.60;0.60;;;;;;;19.41;60.28;100868.47;5047553;28;20040;-39
2022/10/26 03:55:05;;;;;;;0.68;0.65;;;;;;;19.41;60.33;100867.63;5044429;28;20036;-39
2022/10/26 03:57:30;;;;;;;1.33;0.75;;;;;;;19.40;60.35;100861.50;5048030;28;20091;-39
2022/10/26 03:59:56;;;;;;;1.45;0.85;;;;;;;19.40;60.23;100865.94;5047105;28;20048;-44
2022/10/26 04:02:21;;;;;;;1.13;0.75;;;;;;;19.41;60.32;100870.25;5048093;28;20032;-44
2022/10/26 04:04:46;;;;;;;0.85;0.55;;;;;;;19.41;60.28;100870.25;5049618;28;20021;-45
2022/10/26 04:07:12;;;;;;;1.55;0.80;;;;;;;19.40;60.31;100871.22;5048565;28;20847;-44
2022/10/26 04:09:37;;;;;;;1.20;0.70;;;;;;;19.40;60.18;100874.66;5045566;28;20049;-44
2022/10/26 04:12:03;;;;;;;0.95;0.57;;;;;;;19.40;60.18;100872.03;5050324;28;20033;-44
2022/10/26 04:14:28;;;;;;;1.55;0.70;;;;;;;19.40;60.31;100868.56;5044741;28;20036;-45
2022/10/26 04:16:53;;;;;;;1.27;0.85;;;;;;;19.41;60.11;100875.53;5045472;28;20024;-44
2022/10/26 04:19:19;;;;;;;1.17;0.70;;;;;;;19.40;60.24;100879.13;5039383;28;20045;-43
2022/10/26 04:21:44;;;;;;;1.27;0.82;;;;;;;19.39;60.21;100875.63;5049858;28;20043;-44
2022/10/26 04:24:10;;;;;;;1.02;0.68;;;;;;;19.39;60.32;100874.78;5042193;28;20098;-44
2022/10/26 04:26:35;;;;;;;1.13;0.70;;;;;;;19.41;60.23;100880.78;5052735;28;20093;-44
2022/10/26 04:29:05;;;;;;;1.10;0.77;;;;;;;19.40;60.23;100879.13;5045953;28;20041;-45
2022/10/26 04:31:31;;;;;;;1.00;0.55;;;;;;;19.40;60.19;100873.84;5051213;28;20029;-44
2022/10/26 04:33:56;;;;;;;1.48;0.65;;;;;;;19.39;60.33;100875.63;5044859;28;20044;-44
2022/10/26 04:36:22;;;;;;;1.10;0.65;;;;;;;19.42;60.19;100874.59;5048437;28;20033;-46
2022/10/26 04:38:48;;;;;;;1.13;0.57;;;;;;;19.49;59.98;100876.78;5042727;28;20041;-43
2022/10/26 04:41:13;;;;;;;1.00;0.60;;;;;;;19.52;60.42;100873.97;5048267;28;20032;-44
2022/10/26 04:43:38;;;;;;;1.40;0.60;;;;;;;19.60;59.88;100876.22;5047082;28;20040;-44
2022/10/26 04:46:04;;;;;;;0.80;0.70;;;;;;;19.62;59.93;100877.81;5043712;28;20102;-39
2022/10/26 04:48:29;;;;;;;0.65;0.43;;;;;;;19.68;59.72;100882.75;5042993;28;20047;-39
2022/10/26 04:50:58;;;;;;;1.55;0.80;;;;;;;19.72;59.67;100880.78;5043960;28;20772;-44
2022/10/26 04:53:24;;;;;;;1.05;0.75;;;;;;;19.78;59.46;100877.78;5040981;28;20457;-43
2022/10/26 04:55:54;;;;;;;1.20;0.60;;;;;;;19.79;59.72;100866.28;5048304;28;20028;-45
2022/10/26 04:58:20;;;;;;;1.25;0.88;;;;;;;19.83;59.50;100859.91;5047598;28;20136;-44
2022/10/26 05:00:45;;;;;;;1.15;0.47;;;;;;;19.89;59.23;100856.06;5045858;28;20036;-45
2022/10/26 05:03:10;;;;;;;1.55;0.80;;;;;;;19.92;59.43;100856.75;5048344;28;20043;-39
2022/10/26 05:05:36;;;;;;;1.05;0.60;;;;;;;19.92;59.16;100856.75;5047685;28;20068;-39
2022/10/26 05:08:02;;;;;;;1.17;0.60;;;;;;;19.93;59.20;100847.06;5050784;28;20110;-40
2022/10/26 05:10:28;;;;;;;0.70;0.60;;;;;;;19.92;59.23;100854.13;5046615;28;20032;-39
2022/10/26 05:12:55;;;;;;;1.75;0.80;;;;;;;19.95;59.27;100851.31;5048034;28;20047;-39
2022/10/26 05:15:21;;;;;;;1.33;0.60;;;;;;;19.92;59.28;100848.00;5053256;28;20048;-40
2022/10/26 05:17:53;;;;;;;0.70;0.55;;;;;;;19.92;59.16;100848.84;5048225;28;20040;-39
2022/10/26 05:20:18;;;;;;;1.10;0.75;;;;;;;19.94;59.19;100854.88;5049245;28;20033;-39
2022/10/26 05:22:51;;;;;;;1.48;0.57;;;;;;;19.96;59.20;100860.06;5047704;28;20064;-41
2022/10/26 05:25:17;;;;;;;2.22;0.77;;;;;;;19.83;59.48;100854.66;5047980;28;20040;-41
2022/10/26 05:27:42;;;;;;;4.22;0.75;;;;;;;19.82;59.22;100866.13;5051192;28;20715;-41
2022/10/26 05:30:08;;;;;;;1.23;0.60;;;;;;;19.82;59.28;100860.03;5054915;28;20045;-42
2022/10/26 05:32:33;;;;;;;0.98;0.63;;;;;;;19.88;59.17;100863.13;5056097;28;20044;-41
2022/10/26 05:34:58;;;;;;;3.80;0.95;;;;;;;19.92;58.89;100850.63;5057920;28;20032;-41
2022/10/26 05:37:27;;;;;;;3.13;0.90;;;;;;;19.97;58.78;100856.47;5050207;28;20036;-42
2022/10/26 05:39:52;;;;;;;2.58;0.70;;;;;;;19.99;58.31;100850.19;5055439;28;20999;-41
2022/10/26 05:42:19;;;;;;;1.75;0.65;;;;;;;20.00;58.64;100859.78;5057725;28;20041;-41
2022/10/26 05:44:44;;;;;;;5.72;0.73;;;;;;;20.01;58.74;100865.91;5050518;28;20039;-42
2022/10/26 05:47:10;;;;;;;1.98;0.80;;;;;;;20.01;58.71;100881.72;5048397;28;20044;-41
2022/10/26 05:49:35;;;;;;;2.53;0.80;;;;;;;19.98;58.72;100874.84;5049531;28;20033;-41
2022/10/26 05:52:00;;;;;;;2.92;0.98;;;;;;;19.97;58.46;100877.56;5057135;28;20041;-41
2022/10/26 05:54:26;;;;;;;2.15;1.00;;;;;;;19.95;58.76;100880.31;5052430;28;20064;-41
2022/10/26 05:56:51;;;;;;;4.07;0.93;;;;;;;19.92;58.85;100882.25;5053237;28;20095;-41
2022/10/26 05:59:17;;;;;;;8.10;1.35;;;;;;;19.90;58.56;100894.69;5050568;28;20415;-42
2022/10/26 06:01:52;;;;;;;6.82;1.83;;;;;;;19.89;58.85;100899.13;5052832;28;20044;-41
2022/10/26 06:04:28;;;;;;;7.25;1.10;;;;;;;19.89;58.76;100898.25;5052001;28;20509;-41
2022/10/26 06:06:54;;;;;;;4.70;1.30;;;;;;;19.96;58.81;100900.47;5053757;28;20048;-42
2022/10/26 06:09:20;;;;;;;4.65;0.98;;;;;;;19.99;58.75;100900.28;5044378;28;20773;-41
2022/10/26 06:11:46;;;;;;;6.18;1.30;;;;;;;20.12;58.98;100892.53;5055187;28;20525;-41
2022/10/26 06:14:11;;;;;;;2.20;1.27;;;;;;;20.11;58.44;100885.56;5050968;28;20485;-41
2022/10/26 06:16:50;;;;;;;8.05;1.20;;;;;;;20.08;58.71;100889.25;5054379;28;20040;-40
2022/10/26 06:19:40;;;;;;;3.85;1.23;;;;;;;19.99;58.61;100881.84;5050505;28;20041;-41
2022/10/26 06:22:15;;;;;;;3.10;1.13;;;;;;;19.99;59.50;100902.06;5049608;28;20040;-41
2022/10/26 06:24:49;;;;;;;3.00;1.08;;;;;;;19.89;59.14;100907.03;5047279;28;20040;-41
2022/10/26 06:27:39;;;;;;;5.82;1.40;;;;;;;19.91;59.33;100904.28;5049703;28;20040;-40
2022/10/26 06:30:11;;;;;;;10.73;1.27;;;;;;;19.90;59.64;100914.00;5052276;28;20044;-41
2022/10/26 06:32:43;;;;;;;4.50;1.30;;;;;;;19.95;59.53;100911.94;5044400;28;20032;-41
2022/10/26 06:35:33;;;;;;;3.65;1.02;;;;;;;19.89;59.43;100914.06;5049331;28;20083;-41
2022/10/26 06:38:03;;;;;;;4.15;1.20;;;;;;;19.99;59.18;100912.63;5045137;28;20036;-39
2022/10/26 06:40:34;;;;;;;3.42;0.93;;;;;;;19.95;59.99;100922.50;5047683;28;21625;-38
2022/10/26 06:43:02;;;;;;;3.40;1.08;;;;;;;19.86;59.67;100922.16;5046106;28;20041;-46
2022/10/26 06:45:27;;;;;;;2.22;1.05;;;;;;;19.83;59.60;100928.47;5050188;28;20505;-46
2022/10/26 06:48:03;;;;;;;2.42;1.17;;;;;;;19.92;59.97;100935.84;5049082;28;20051;-45
2022/10/26 06:50:43;;;;;;;2.40;1.02;;;;;;;19.85;59.27;100936.31;5044683;28;20763;-46
2022/10/26 06:53:11;;;;;;;6.68;1.20;;;;;;;19.85;59.27;100938.94;5047668;28;20020;-47
2022/10/26 06:55:41;;;;;;;4.70;1.13;;;;;;;19.86;59.32;100932.72;5042540;28;20088;-46
2022/10/26 06:58:29;;;;;;;2.58;0.85;;;;;;;19.80;59.43;100934.75;5054723;28;20731;-48
2022/10/26 07:00:55;;;;;;;8.45;1.45;;;;;;;19.89;61.01;100932.53;5058707;28;20053;-45
2022/10/26 07:03:21;;;;;;;6.90;1.30;;;;;;;19.92;60.80;100927.09;5052937;28;20107;-46
2022/10/26 07:05:46;;;;;;;5.70;1.33;;;;;;;19.90;59.40;100924.56;5051965;28;20125;-51
2022/10/26 07:08:12;;;;;;;3.65;0.90;;;;;;;19.83;60.26;100932.88;5051376;28;20118;-48
2022/10/26 07:10:38;;;;;;;3.85;1.08;;;;;;;19.80;59.71;100937.41;5049270;28;20106;-49
2022/10/26 07:13:05;;;;;;;3.17;0.85;;;;;;;19.76;60.09;100943.78;5049536;28;20029;-48
2022/10/26 07:15:31;;;;;;;1.80;0.70;;;;;;;19.77;60.15;100934.09;5050723;28;20048;-49
2022/10/26 07:17:56;;;;;;;1.73;0.70;;;;;;;19.98;59.29;100943.41;5050302;28;20049;-47
2022/10/26 07:20:22;;;;;;;4.13;1.05;;;;;;;19.89;59.21;100943.94;5047821;28;20541;-48
2022/10/26 07:22:51;;;;;;;1.95;0.90;;;;;;;19.89;59.21;100957.13;5048512;28;20028;-46
2022/10/26 07:25:17;;;;;;;2.35;1.00;;;;;;;19.69;59.64;100944.22;5044020;28;20047;-46
2022/10/26 07:27:42;;;;;;;5.47;1.08;;;;;;;19.64;60.06;100943.63;5044845;28;20037;-46
2022/10/26 07:30:08;;;;;;;4.45;0.93;;;;;;;19.79;59.66;100934.84;5045380;28;20041;-45
2022/10/26 07:32:34;;;;;;;6.45;1.38;;;;;;;20.01;60.09;100948.50;5049376;28;20028;-46
2022/10/26 07:34:59;;;;;;;4.63;0.95;;;;;;;20.05;60.51;100962.38;5051208;28;20105;-45
2022/10/26 07:37:24;;;;;;;5.95;1.38;;;;;;;20.06;61.00;100978.09;5048127;28;20245;-46
2022/10/26 07:39:52;;;;;;;3.53;0.98;;;;;;;19.99;59.28;100971.50;5046171;28;20137;-46
2022/10/26 07:42:18;;;;;;;5.57;1.50;;;;;;;20.06;59.21;100964.91;5047297;28;20912;-43
2022/10/26 07:44:43;;;;;;;9.30;1.60;;;;;;;20.34;60.00;100970.34;5048386;28;20052;-50
2022/10/26 07:47:09;;;;;;;2.28;0.90;;;;;;;19.80;59.49;100968.19;5052312;28;20044;-50
2022/10/26 07:49:34;;;;;;;3.83;1.13;;;;;;;19.72;59.83;100968.63;5048142;28;20045;-51
2022/10/26 07:52:00;;;;;;;2.63;1.05;;;;;;;19.73;59.72;100959.75;5048618;28;20178;-49
2022/10/26 07:54:25;;;;;;;1.88;0.70;;;;;;;19.67;59.83;100960.09;5044524;28;20045;-51
2022/10/26 07:56:50;;;;;;;4.70;0.80;;;;;;;19.69;61.20;100952.97;5053508;28;20033;-51
2022/10/26 07:59:17;;;;;;;3.42;0.88;;;;;;;19.72;59.78;100965.97;5044274;28;20039;-52
2022/10/26 08:01:42;;;;;;;1.80;0.88;;;;;;;19.68;59.69;100969.72;5048527;28;20033;-54
2022/10/26 08:04:08;;;;;;;4.72;1.10;;;;;;;19.66;60.03;100976.00;5046688;28;20032;-52
2022/10/26 08:06:33;;;;;;;2.22;0.93;;;;;;;19.62;60.22;100979.75;5051323;28;20036;-50
2022/10/26 08:08:58;;;;;;;2.60;1.02;;;;;;;19.63;60.12;100979.66;5046389;28;20041;-54
2022/10/26 08:11:24;;;;;;;3.08;0.80;;;;;;;19.62;60.23;100959.50;5046175;28;20056;-50
2022/10/26 08:13:53;;;;;;;4.22;1.17;;;;;;;19.61;60.14;100963.06;5045042;28;20024;-51
2022/10/26 08:16:19;;;;;;;1.70;0.77;;;;;;;19.64;60.16;100962.91;5054632;28;20501;-48
2022/10/26 08:18:51;;;;;;;2.88;1.05;;;;;;;19.61;60.24;100968.34;5042167;28;20037;-51
2022/10/26 08:21:17;;;;;;;1.58;0.80;;;;;;;19.60;60.24;100966.66;5041964;28;20036;-49
2022/10/26 08:23:43;;;;;;;1.95;0.88;;;;;;;19.60;60.04;100969.28;5038607;28;20739;-50
2022/10/26 08:26:12;;;;;;;2.38;0.80;;;;;;;19.63;60.20;100970.91;5043028;28;20541;-51
2022/10/26 08:28:39;;;;;;;3.70;1.10;;;;;;;19.60;60.27;100976.34;5051357;28;20029;-44
2022/10/26 08:31:05;;;;;;;2.78;0.90;;;;;;;19.60;60.28;100987.75;5046845;28;20965;-44
2022/10/26 08:33:31;;;;;;;2.17;1.02;;;;;;;19.60;60.33;100985.09;5047697;28;20408;-49
2022/10/26 08:35:59;;;;;;;4.00;1.05;;;;;;;19.59;60.35;100991.31;5048721;28;20136;-46
2022/10/26 08:38:25;;;;;;;1.55;0.80;;;;;;;19.62;60.57;100996.41;5054782;28;20025;-49
2022/10/26 08:40:51;;;;;;;1.67;0.88;;;;;;;19.60;60.13;100990.38;5049093;28;21057;-52
2022/10/26 08:43:21;;;;;;;1.45;0.90;;;;;;;19.61;60.23;100994.69;5045251;28;20033;-49
2022/10/26 08:46:02;;;;;;;2.20;0.82;;;;;;;19.61;60.38;100999.16;5055874;28;20090;-46
2022/10/26 08:48:34;;;;;;;2.72;0.88;;;;;;;19.60;60.40;100993.00;5056635;28;20490;-47
2022/10/26 08:51:12;;;;;;;1.38;0.88;;;;;;;19.61;60.15;101002.59;5045976;28;20045;-48
2022/10/26 08:53:50;;;;;;;2.80;0.77;;;;;;;19.62;60.26;101006.09;5054482;28;20433;-48
2022/10/26 08:56:20;;;;;;;3.40;1.00;;;;;;;19.62;60.42;101008.72;5050627;28;22154;-48
2022/10/26 08:59:08;;;;;;;1.95;0.70;;;;;;;19.61;60.28;101005.22;5051059;28;20048;-47
2022/10/26 09:01:34;;;;;;;4.43;0.77;;;;;;;19.62;60.43;101016.63;5047372;28;20029;-47
2022/10/26 09:04:02;;;;;;;1.17;0.73;;;;;;;19.62;59.83;101008.72;5056104;28;20033;-47
2022/10/26 09:07:01;;;;;;;2.08;0.98;;;;;;;19.62;60.23;101000.81;5053252;28;20044;-46
2022/10/26 09:09:51;;;;;;;1.88;0.82;;;;;;;19.61;60.31;101002.59;5010516;28;20114;-46
2022/10/26 09:12:26;;;;;;;1.00;0.73;;;;;;;19.64;59.95;100997.16;5045392;28;20390;-46
2022/10/26 09:15:07;;;;;;;3.22;0.75;;;;;;;19.64;60.21;100996.34;5050548;28;20049;-45
2022/10/26 09:17:45;;;;;;;1.27;0.80;;;;;;;19.63;60.26;101002.53;5048586;28;20161;-46
2022/10/26 09:20:32;;;;;;;4.78;0.90;;;;;;;19.66;60.23;101021.66;5050399;28;20032;-48
2022/10/26 09:23:14;;;;;;;3.33;0.55;;;;;;;19.65;60.10;101012.06;5047045;28;20051;-47
2022/10/26 09:25:40;;;;;;;3.75;0.90;;;;;;;19.63;60.47;101021.84;5048574;28;20063;-48
2022/10/26 09:28:15;;;;;;;1.58;0.80;;;;;;;19.67;60.10;101019.84;5047135;28;20164;-47
2022/10/26 09:30:44;;;;;;;2.13;0.80;;;;;;;19.65;60.15;101022.59;5053137;28;20401;-48
2022/10/26 09:33:23;;;;;;;1.67;0.70;;;;;;;19.62;60.36;101024.53;5048514;28;20051;-49
2022/10/26 09:35:57;;;;;;;1.65;0.60;;;;;;;19.66;60.30;101028.72;5045449;28;20037;-48
2022/10/26 09:38:33;;;;;;;1.52;0.85;;;;;;;19.63;60.25;101029.75;5051176;28;20032;-47
2022/10/26 09:41:20;;;;;;;1.55;1.08;;;;;;;19.61;60.31;101044.78;5044634;28;20143;-49
2022/10/26 09:43:49;;;;;;;3.50;0.68;;;;;;;19.64;60.07;101036.69;5046523;28;20102;-47
2022/10/26 09:46:24;;;;;;;1.38;0.60;;;;;;;19.67;60.24;101040.94;5047706;28;20040;-51
2022/10/26 09:49:11;;;;;;;1.13;0.65;;;;;;;19.68;60.17;101035.59;5045509;28;20032;-49
2022/10/26 09:51:38;;;;;;;1.65;0.85;;;;;;;19.66;60.19;101041.91;5048495;28;20122;-44
2022/10/26 09:54:13;;;;;;;1.70;0.80;;;;;;;19.67;60.23;101038.31;5050023;28;20044;-42
2022/10/26 09:56:40;;;;;;;1.15;0.73;;;;;;;19.68;60.24;101053.19;5048041;28;20731;-46
2022/10/26 09:59:06;;;;;;;1.10;0.55;;;;;;;19.68;60.17;101055.84;5051505;28;20238;-43
2022/10/26 10:01:34;;;;;;;1.02;0.70;;;;;;;19.90;60.07;101052.88;5049326;28;20064;-46
2022/10/26 10:04:24;;;;;;;0.60;0.60;;;;;;;19.79;60.06;101048.19;5054878;28;20582;-40
2022/10/26 10:07:02;;;;;;;1.15;0.70;;;;;;;19.83;60.30;101059.41;5045542;28;20557;-40
2022/10/26 10:09:27;;;;;;;1.88;0.70;;;;;;;19.79;59.85;101056.09;5043062;28;20041;-40
2022/10/26 10:11:55;;;;;;;1.42;0.63;;;;;;;19.73;60.02;101070.47;5050407;28;20035;-40
2022/10/26 10:14:53;;;;;;;2.65;0.75;;;;;;;19.72;59.96;101065.28;5043361;28;20401;-41
2022/10/26 10:17:21;;;;;;;2.20;0.73;;;;;;;19.74;60.12;101073.97;5054013;28;20117;-40
2022/10/26 10:19:47;;;;;;;1.17;0.80;;;;;;;19.85;60.57;101083.94;5047743;28;20040;-42
2022/10/26 10:22:18;;;;;;;1.00;0.80;;;;;;;19.99;60.40;101076.97;5052353;28;20677;-42
2022/10/26 10:25:00;;;;;;;2.28;0.75;;;;;;;19.93;60.13;101076.44;5048576;28;20028;-43
2022/10/26 10:27:27;;;;;;;1.88;1.05;;;;;;;19.97;59.50;101086.72;5050218;28;20842;-40
2022/10/26 10:29:57;;;;;;;2.55;0.80;;;;;;;19.79;59.92;101093.00;5049804;28;20157;-40
2022/10/26 10:32:29;;;;;;;2.10;0.60;;;;;;;19.80;59.95;101092.06;5050479;28;20055;-41
2022/10/26 10:34:56;;;;;;;2.15;0.70;;;;;;;19.78;60.10;101094.81;5044309;28;20033;-40
2022/10/26 10:37:41;;;;;;;2.88;0.65;;;;;;;19.75;60.10;101097.63;5047337;28;20040;-40
2022/10/26 10:40:13;;;;;;;2.00;0.93;;;;;;;19.74;60.33;101101.16;5049125;28;20053;-40
2022/10/26 10:42:41;;;;;;;1.02;0.70;;;;;;;19.75;60.15;101102.88;5049373;28;20024;-40
2022/10/26 10:45:26;;;;;;;2.85;0.90;;;;;;;19.72;60.32;101102.19;5049510;28;20094;-40
2022/10/26 10:48:05;;;;;;;2.15;0.70;;;;;;;19.74;60.07;101110.84;5052487;28;20100;-40
2022/10/26 10:50:32;;;;;;;2.47;0.70;;;;;;;19.72;60.44;101121.50;5043680;28;20027;-40
2022/10/26 10:53:25;;;;;;;3.33;1.13;;;;;;;19.74;60.25;101114.34;5045256;28;20075;-40
2022/10/26 10:55:59;;;;;;;1.77;0.82;;;;;;;19.72;60.31;101118.88;5053635;28;20074;-40
2022/10/26 10:58:58;;;;;;;4.80;1.90;;;;;;;19.81;60.40;101120.16;5051589;28;20071;-40
2022/10/26 11:01:37;;;;;;;6.35;1.10;;;;;;;19.87;60.59;101125.09;5015494;28;20045;-40
2022/10/26 11:04:25;;;;;;;3.70;1.05;;;;;;;20.06;60.88;101124.94;5042960;28;20041;-40
2022/10/26 11:06:52;;;;;;;9.20;1.30;;;;;;;19.85;61.34;101128.75;5043780;28;20099;-40
2022/10/26 11:09:24;;;;;;;5.10;1.17;;;;;;;19.79;61.19;101130.75;5046859;28;20042;-40
2022/10/26 11:11:55;;;;;;;6.15;1.30;;;;;;;19.75;61.06;101133.66;5043076;28;20448;-40
2022/10/26 11:14:24;;;;;;;4.82;1.33;;;;;;;19.77;60.97;101135.28;5044110;28;20798;-41
2022/10/26 11:17:03;;;;;;;2.72;1.13;;;;;;;19.80;60.89;101134.25;5041813;28;20032;-40
2022/10/26 11:19:41;;;;;;;4.45;1.10;;;;;;;19.78;60.69;101134.34;5042121;28;20647;-40
2022/10/26 11:22:13;;;;;;;2.17;0.75;;;;;;;19.76;60.47;101143.25;5041954;28;20041;-40
2022/10/26 11:24:46;;;;;;;3.72;1.20;;;;;;;19.76;60.63;101145.88;5053733;28;20032;-40
2022/10/26 11:27:50;;;;;;;2.90;0.90;;;;;;;19.72;60.76;101139.94;5043490;28;20458;-41
2022/10/26 11:30:21;;;;;;;2.10;1.20;;;;;;;19.75;60.59;101149.47;5050276;28;20052;-40
2022/10/26 11:32:49;;;;;;;4.95;1.00;;;;;;;19.77;60.39;101144.97;5044394;28;20048;-41
2022/10/26 11:35:32;;;;;;;2.80;0.93;;;;;;;19.76;60.38;101149.38;5050442;28;20028;-41
2022/10/26 11:38:32;;;;;;;4.13;0.90;;;;;;;19.75;60.47;101152.13;5050770;28;20044;-41
2022/10/26 11:41:13;;;;;;;2.63;0.80;;;;;;;19.75;60.42;101152.97;5049480;28;20770;-40